Time;durP1;ratioP1;P1;durP2;ratioP2;P2;SDS_P1;SDS_P2;PMS_P1;PMS_P2;Temp;Humidity;BMP_temperature;BMP_pressure;BME280_temperature;BME280_humidity;BME280_pressure;Samples;Min_cycle;Max_cycle;Signal;HPM_P1;HPM_P2
2023/12/28 00:00:08;;;;;;;;;;;12.50;52.30;;;12.69;54.95;100157.84;5044323;28;20300;-41
2023/12/28 00:02:36;;;;;;;;;;;12.50;52.30;;;12.73;54.85;100152.41;5044517;28;19925;-33
2023/12/28 00:05:04;;;;;;;;;;;12.50;52.30;;;12.74;55.32;100164.28;5044459;28;19924;-32
2023/12/28 00:07:32;;;;;;;;;;;12.60;52.40;;;12.76;55.52;100172.88;5032093;28;20415;-32
2023/12/28 00:10:00;;;;;;;;;;;12.60;52.30;;;12.76;55.00;100167.88;5048244;28;19925;-32
2023/12/28 00:12:28;;;;;;;;;;;12.60;52.40;;;12.77;55.41;100179.69;5044205;28;19972;-33
2023/12/28 00:14:56;;;;;;;;;;;12.60;52.40;;;12.79;55.34;100183.28;5043958;28;19924;-32
2023/12/28 00:17:25;;;;;;;;;;;12.60;52.40;;;12.79;54.75;100190.81;5041010;28;20027;-33
2023/12/28 00:19:53;;;;;;;;;;;12.60;52.40;;;12.81;56.14;100189.38;5046968;28;20423;-33
2023/12/28 00:22:21;;;;;;;;;;;12.60;52.40;;;12.84;55.86;100199.78;5042045;28;19967;-32
2023/12/28 00:24:49;;;;;;;;;;;12.60;52.40;;;12.87;54.82;100200.13;5047005;28;20019;-30
2023/12/28 00:27:16;;;;;;;;;;;12.60;52.40;;;12.88;55.49;100196.91;5036743;28;20289;-32
2023/12/28 00:29:44;;;;;;;;;;;12.70;52.40;;;12.90;55.04;100202.97;5040571;28;19932;-31
2023/12/28 00:32:12;;;;;;;;;;;12.70;52.40;;;12.92;55.43;100200.66;5041274;28;19932;-31
2023/12/28 00:34:41;;;;;;;;;;;12.70;52.30;;;12.90;55.33;100192.91;5043869;28;19925;-32
2023/12/28 00:37:09;;;;;;;;;;;12.70;52.40;;;12.92;55.22;100204.78;5043440;28;19924;-36
2023/12/28 00:39:38;;;;;;;;;;;12.70;52.30;;;12.89;55.85;100206.25;5047776;28;20311;-30
2023/12/28 00:42:06;;;;;;;;;;;12.70;52.30;;;12.90;55.31;100215.56;5048580;28;19925;-32
2023/12/28 00:44:34;;;;;;;;;;;12.70;52.30;;;12.90;55.16;100218.06;5032458;28;19977;-34
2023/12/28 00:47:02;;;;;;;;;;;12.70;52.40;;;12.88;56.03;100214.50;5039746;28;19947;-35
2023/12/28 00:49:29;;;;;;;;;;;12.70;52.50;;;12.86;55.65;100205.88;5048659;28;19929;-34
2023/12/28 00:51:59;;;;;;;;;;;12.70;52.50;;;12.85;55.82;100214.13;5040614;28;19925;-33
2023/12/28 00:54:27;;;;;;;;;;;12.70;52.60;;;12.71;54.98;100201.59;5042520;28;19925;-34
2023/12/28 00:56:54;;;;;;;;;;;12.70;52.60;;;12.81;56.34;100222.06;5050809;28;19964;-33
2023/12/28 00:59:22;;;;;;;;;;;12.70;52.70;;;12.79;56.12;100233.56;5041667;28;19931;-34
2023/12/28 01:01:50;;;;;;;;;;;12.70;52.70;;;12.77;56.60;100219.91;5038063;28;19924;-34
2023/12/28 01:04:18;;;;;;;;;;;12.60;52.80;;;12.70;55.99;100217.44;5043635;28;20458;-36
2023/12/28 01:06:46;;;;;;;;;;;12.60;52.80;;;12.71;56.22;100229.25;5046544;28;20316;-35
2023/12/28 01:09:15;;;;;;;;;;;12.60;52.90;;;12.69;55.89;100220.66;5040750;28;20419;-36
2023/12/28 01:11:43;;;;;;;;;;;12.60;53.00;;;12.64;56.10;100221.78;5043443;28;20400;-31
2023/12/28 01:14:11;;;;;;;;;;;12.50;53.00;;;12.65;57.12;100221.03;5042999;28;19925;-34
2023/12/28 01:16:40;;;;;;;;;;;12.50;53.10;;;12.64;56.67;100236.84;5040305;28;19925;-32
2023/12/28 01:19:07;;;;;;;;;;;12.50;53.20;;;12.62;56.04;100233.25;5047755;28;19933;-32
2023/12/28 01:21:36;;;;;;;;;;;12.50;53.20;;;12.60;56.32;100237.19;5051815;28;19925;-31
2023/12/28 01:24:04;;;;;;;;;;;12.50;53.30;;;12.60;56.68;100233.78;5044125;28;19925;-32
2023/12/28 01:26:34;;;;;;;;;;;12.40;53.30;;;12.58;56.03;100241.16;5042232;28;19931;-32
2023/12/28 01:29:03;;;;;;;;;;;12.40;53.40;;;12.58;56.51;100245.31;5038103;28;19975;-31
2023/12/28 01:31:30;;;;;;;;;;;12.40;53.40;;;12.57;56.46;100249.44;5040206;28;19988;-33
2023/12/28 01:33:59;;;;;;;;;;;12.40;53.40;;;12.56;56.17;100250.13;5046678;28;20396;-36
2023/12/28 01:36:29;;;;;;;;;;;12.40;53.50;;;12.57;56.43;100248.53;5043085;28;19928;-34
2023/12/28 01:38:56;;;;;;;;;;;12.40;53.50;;;12.58;56.91;100255.34;5042586;28;19925;-33
2023/12/28 01:41:24;;;;;;;;;;;12.40;53.50;;;12.58;56.55;100246.19;5041188;28;19925;-32
2023/12/28 01:43:53;;;;;;;;;;;12.40;53.60;;;12.59;56.08;100250.47;5039921;28;19935;-31
2023/12/28 01:46:22;;;;;;;;;;;12.40;53.50;;;12.61;56.46;100261.63;5039664;28;19924;-34
2023/12/28 01:48:50;;;;;;;;;;;12.40;53.50;;;12.62;57.05;100270.94;5039046;28;20003;-32
2023/12/28 01:51:18;;;;;;;;;;;12.50;53.60;;;12.57;56.59;100259.47;5047810;28;19932;-31
2023/12/28 01:53:46;;;;;;;;;;;12.50;53.50;;;12.66;56.19;100275.59;5039494;28;19925;-31
2023/12/28 01:56:14;;;;;;;;;;;12.50;53.50;;;12.67;57.09;100277.41;5039856;28;20296;-32
2023/12/28 01:58:42;;;;;;;;;;;12.50;53.60;;;12.68;56.95;100274.16;5042397;28;19924;-31
2023/12/28 02:01:12;;;;;;;;;;;12.50;53.50;;;12.71;56.61;100279.53;5043409;28;19925;-32
2023/12/28 02:03:40;;;;;;;;;;;12.50;53.60;;;12.72;57.23;100276.31;5035737;28;19976;-32
2023/12/28 02:06:08;;;;;;;;;;;12.50;53.50;;;12.73;57.06;100268.06;5051070;28;19975;-37
2023/12/28 02:08:36;;;;;;;;;;;12.50;53.50;;;12.73;56.83;100275.59;5038722;28;20395;-33
2023/12/28 02:11:04;;;;;;;;;;;12.60;53.60;;;12.76;56.92;100273.44;5042925;28;20376;-33
2023/12/28 02:13:32;;;;;;;;;;;12.60;53.60;;;12.77;55.89;100260.13;5045801;28;20016;-33
2023/12/28 02:16:03;;;;;;;;;;;12.60;53.50;;;12.75;56.37;100261.59;5046308;28;19929;-32
2023/12/28 02:18:35;;;;;;;;;;;12.60;53.60;;;12.60;56.26;100229.66;5043108;28;19931;-32
2023/12/28 02:21:03;;;;;;;;;;;12.60;53.60;;;12.80;56.03;100257.97;5042723;28;19992;-32
2023/12/28 02:23:33;;;;;;;;;;;12.60;53.50;;;12.76;56.84;100268.41;5045356;28;20265;-32
2023/12/28 02:26:02;;;;;;;;;;;12.60;53.50;;;12.81;56.24;100292.47;5046286;28;19925;-32
2023/12/28 02:28:30;;;;;;;;;;;12.60;53.50;;;12.82;56.34;100269.13;5042809;28;20307;-34
2023/12/28 02:30:58;;;;;;;;;;;12.60;53.50;;;12.85;56.45;100274.47;5042686;28;19925;-36
2023/12/28 02:33:27;;;;;;;;;;;12.60;53.40;;;12.87;56.79;100273.06;5044027;28;19925;-35
2023/12/28 02:35:57;;;;;;;;;;;12.70;53.50;;;12.86;56.16;100276.28;5045887;28;20023;-32
2023/12/28 02:38:25;;;;;;;;;;;12.70;53.40;;;12.86;55.94;100271.25;5037310;28;20012;-31
2023/12/28 02:40:53;;;;;;;;;;;12.70;53.40;;;12.86;56.64;100281.31;5040535;28;20299;-32
2023/12/28 02:43:22;;;;;;;;;;;12.70;53.30;;;12.86;56.34;100290.47;5050457;28;19924;-32
2023/12/28 02:45:50;;;;;;;;;;;12.70;53.30;;;12.76;55.81;100288.53;5042082;28;19929;-33
2023/12/28 02:48:18;;;;;;;;;;;12.70;53.30;;;12.84;56.34;100292.78;5041601;28;20376;-34
2023/12/28 02:50:46;;;;;;;;;;;12.70;53.30;;;12.83;56.32;100291.03;5042403;28;19952;-33
2023/12/28 02:53:14;;;;;;;;;;;12.70;53.30;;;12.82;56.08;100289.22;5050968;28;19924;-34
2023/12/28 02:55:42;;;;;;;;;;;12.70;53.40;;;12.82;57.07;100298.41;5042747;28;20012;-36
2023/12/28 02:58:10;;;;;;;;;;;12.70;53.40;;;12.79;56.49;100293.91;5041601;28;19928;-31
2023/12/28 03:00:39;;;;;;;;;;;12.70;53.40;;;12.78;56.51;100289.59;5050309;28;20002;-33
2023/12/28 03:03:07;;;;;;;;;;;12.60;53.50;;;12.75;56.88;100276.69;5042413;28;19929;-33
2023/12/28 03:05:35;;;;;;;;;;;12.60;53.50;;;12.74;56.03;100284.03;5044262;28;19925;-31
2023/12/28 03:08:03;;;;;;;;;;;12.60;53.50;;;12.71;56.83;100283.69;5044832;28;20011;-34
2023/12/28 03:10:31;;;;;;;;;;;12.60;53.60;;;12.70;56.84;100282.81;5051333;28;20011;-31
2023/12/28 03:12:59;;;;;;;;;;;12.60;53.70;;;12.68;57.31;100283.31;5047642;28;19925;-33
2023/12/28 03:15:27;;;;;;;;;;;12.60;53.80;;;12.63;56.83;100280.28;5037110;28;19925;-34
2023/12/28 03:17:56;;;;;;;;;;;12.50;53.70;;;12.62;56.80;100281.00;5046411;28;19925;-34
2023/12/28 03:20:24;;;;;;;;;;;12.50;53.80;;;12.64;56.98;100292.16;5046181;28;19925;-35
2023/12/28 03:22:52;;;;;;;;;;;12.50;53.90;;;12.62;57.28;100283.53;5045821;28;20324;-32
2023/12/28 03:25:20;;;;;;;;;;;12.50;53.90;;;12.62;57.89;100297.69;5044333;28;19935;-32
2023/12/28 03:27:48;;;;;;;;;;;12.40;53.90;;;12.59;57.56;100285.66;5038773;28;19951;-32
2023/12/28 03:30:16;;;;;;;;;;;12.40;54.00;;;12.59;57.14;100272.19;5045033;28;20388;-32
2023/12/28 03:32:44;;;;;;;;;;;12.40;54.00;;;12.58;56.83;100283.91;5033629;28;20327;-31
2023/12/28 03:35:14;;;;;;;;;;;12.40;54.00;;;12.59;57.70;100278.13;5041307;28;20285;-31
2023/12/28 03:37:41;;;;;;;;;;;12.40;54.10;;;12.59;57.42;100273.09;5043890;28;19928;-32
2023/12/28 03:40:10;;;;;;;;;;;12.40;54.00;;;12.59;57.27;100268.06;5044560;28;19925;-32
2023/12/28 03:42:39;;;;;;;;;;;12.40;54.10;;;12.57;57.52;100268.63;5041916;28;19975;-31
2023/12/28 03:45:08;;;;;;;;;;;12.40;54.10;;;12.61;57.69;100265.75;5039928;28;19929;-32
2023/12/28 03:47:36;;;;;;;;;;;12.40;54.10;;;12.62;57.49;100258.38;5043878;28;20035;-32
2023/12/28 03:50:04;;;;;;;;;;;12.40;54.00;;;12.63;57.47;100260.19;5044651;28;20003;-33
2023/12/28 03:52:33;;;;;;;;;;;12.50;54.10;;;12.65;56.99;100263.75;5050623;28;19924;-34
2023/12/28 03:55:01;;;;;;;;;;;12.50;54.00;;;12.65;57.56;100271.28;5041085;28;19925;-32
2023/12/28 03:57:29;;;;;;;;;;;12.50;54.00;;;12.68;56.62;100254.06;5040348;28;19925;-33
2023/12/28 03:59:57;;;;;;;;;;;12.50;54.00;;;12.69;56.86;100263.41;5041031;28;19925;-35
2023/12/28 04:02:27;;;;;;;;;;;12.50;54.00;;;12.67;56.80;100264.84;5049070;28;19925;-36
2023/12/28 04:04:55;;;;;;;;;;;12.50;53.90;;;12.72;57.30;100276.31;5040683;28;19925;-37
2023/12/28 04:07:23;;;;;;;;;;;12.50;53.90;;;12.72;56.84;100271.28;5040362;28;19929;-36
2023/12/28 04:09:52;;;;;;;;;;;12.50;53.90;;;12.70;57.31;100267.72;5044376;28;20349;-32
2023/12/28 04:12:20;;;;;;;;;;;12.60;54.00;;;12.74;57.46;100272.38;5052153;28;20384;-33
2023/12/28 04:14:48;;;;;;;;;;;12.50;53.80;;;12.77;56.77;100284.41;5044886;28;19931;-32
2023/12/28 04:17:16;;;;;;;;;;;12.60;53.90;;;12.76;57.32;100278.47;5043645;28;20316;-33
2023/12/28 04:19:44;;;;;;;;;;;12.60;53.90;;;12.74;56.65;100274.88;5043987;28;19925;-34
2023/12/28 04:22:12;;;;;;;;;;;12.60;53.90;;;12.79;57.00;100273.78;5044592;28;19925;-34
2023/12/28 04:24:40;;;;;;;;;;;12.50;53.70;;;12.80;57.05;100264.63;5041194;28;19933;-36
2023/12/28 04:27:09;;;;;;;;;;;12.60;53.80;;;12.81;57.33;100252.25;5039857;28;19929;-32
2023/12/28 04:29:37;;;;;;;;;;;12.60;53.80;;;12.83;56.98;100255.84;5043862;28;19925;-34
2023/12/28 04:32:05;;;;;;;;;;;12.60;53.70;;;12.85;56.11;100254.38;5050156;28;20373;-34
2023/12/28 04:34:33;;;;;;;;;;;12.60;53.70;;;12.87;56.35;100247.91;5043697;28;19928;-34
2023/12/28 04:37:01;;;;;;;;;;;12.70;53.70;;;12.86;56.94;100252.75;5042014;28;19979;-32
2023/12/28 04:39:29;;;;;;;;;;;12.60;53.60;;;12.85;57.02;100256.88;5042148;28;19925;-32
2023/12/28 04:41:57;;;;;;;;;;;12.70;53.60;;;12.85;56.65;100254.38;5043976;28;19925;-34
2023/12/28 04:44:27;;;;;;;;;;;12.70;53.60;;;12.85;55.98;100254.38;5043233;28;19925;-33
2023/12/28 04:46:54;;;;;;;;;;;12.70;53.60;;;12.84;57.24;100250.06;5039542;28;20029;-33
2023/12/28 04:49:22;;;;;;;;;;;12.70;53.50;;;12.84;56.99;100237.47;5041085;28;19982;-35
2023/12/28 04:51:50;;;;;;;;;;;12.70;53.60;;;12.84;56.78;100244.13;5053260;28;20395;-34
2023/12/28 04:54:19;;;;;;;;;;;12.70;53.60;;;12.83;56.46;100249.91;5044271;28;19935;-35
2023/12/28 04:56:46;;;;;;;;;;;12.70;53.60;;;12.82;56.97;100248.09;5032457;28;19929;-34
2023/12/28 04:59:14;;;;;;;;;;;12.70;53.60;;;12.79;56.56;100258.69;5040332;28;20261;-35
2023/12/28 05:01:44;;;;;;;;;;;12.70;53.60;;;12.78;56.55;100243.44;5043648;28;19944;-33
2023/12/28 05:04:12;;;;;;;;;;;12.60;53.60;;;12.75;56.51;100251.53;5044260;28;20517;-33
2023/12/28 05:06:44;;;;;;;;;;;12.60;53.70;;;12.74;57.13;100254.75;5040963;28;19933;-36
2023/12/28 05:09:12;;;;;;;;;;;12.60;53.70;;;12.72;56.84;100261.22;5040062;28;19983;-37
2023/12/28 05:11:40;;;;;;;;;;;12.60;53.80;;;12.69;57.42;100260.88;5043790;28;20392;-34
2023/12/28 05:14:08;;;;;;;;;;;12.60;53.80;;;12.68;56.95;100264.13;5047258;28;19984;-32
2023/12/28 05:16:38;;;;;;;;;;;12.50;53.80;;;12.65;57.58;100263.75;5049310;28;19931;-34
2023/12/28 05:19:07;;;;;;;;;;;12.50;53.90;;;12.64;57.32;100269.53;5044956;28;19936;-35
2023/12/28 05:21:35;;;;;;;;;;;12.50;53.90;;;12.63;57.30;100275.25;5048581;28;19925;-36
2023/12/28 05:24:03;;;;;;;;;;;12.50;53.90;;;12.61;57.43;100281.72;5048499;28;19999;-38
2023/12/28 05:26:31;;;;;;;;;;;12.50;54.00;;;12.61;57.11;100279.22;5047403;28;20015;-36
2023/12/28 05:28:58;;;;;;;;;;;12.50;54.10;;;12.59;57.57;100278.13;5040128;28;20168;-32
2023/12/28 05:31:26;;;;;;;;;;;12.40;54.00;;;12.56;57.65;100277.78;5040704;28;19925;-33
2023/12/28 05:33:54;;;;;;;;;;;12.40;54.10;;;12.58;57.65;100281.38;5043854;28;19990;-32
2023/12/28 05:36:24;;;;;;;;;;;12.40;54.10;;;12.58;56.97;100286.41;5043787;28;19932;-32
2023/12/28 05:38:51;;;;;;;;;;;12.40;54.10;;;12.57;57.50;100284.59;5042662;28;19979;-32
2023/12/28 05:41:19;;;;;;;;;;;12.40;54.10;;;12.58;57.63;100291.44;5044068;28;20291;-33
2023/12/28 05:43:47;;;;;;;;;;;12.40;54.10;;;12.59;57.71;100293.19;5042147;28;19925;-35
2023/12/28 05:46:15;;;;;;;;;;;12.40;54.10;;;12.60;57.06;100295.00;5050643;28;19976;-35
2023/12/28 05:48:43;;;;;;;;;;;12.40;54.20;;;12.60;57.05;100300.03;5046160;28;19952;-33
2023/12/28 05:51:11;;;;;;;;;;;12.40;54.10;;;12.63;57.69;100302.91;5048886;28;20216;-34
2023/12/28 05:53:40;;;;;;;;;;;12.50;54.10;;;12.65;56.96;100314.03;5043595;28;20028;-33
2023/12/28 05:56:09;;;;;;;;;;;12.50;54.10;;;12.67;57.87;100322.66;5043849;28;19926;-32
2023/12/28 05:58:38;;;;;;;;;;;12.50;54.10;;;12.70;57.29;100315.47;5044197;28;19932;-32
2023/12/28 06:01:06;;;;;;;;;;;12.50;54.00;;;12.72;57.53;100316.53;5046719;28;20027;-32
2023/12/28 06:03:34;;;;;;;;;;;12.50;54.00;;;12.72;57.43;100316.53;5045378;28;19925;-34
2023/12/28 06:06:02;;;;;;;;;;;12.50;53.90;;;12.73;57.19;100318.31;5043303;28;19932;-34
2023/12/28 06:08:30;;;;;;;;;;;12.50;53.90;;;12.75;57.20;100305.94;5051056;28;19924;-34
2023/12/28 06:10:59;;;;;;;;;;;12.50;53.90;;;12.72;57.10;100298.94;5043688;28;19979;-36
2023/12/28 06:13:27;;;;;;;;;;;12.60;53.90;;;12.77;57.16;100305.38;5051328;28;19968;-33
2023/12/28 06:15:55;;;;;;;;;;;12.60;53.90;;;12.78;57.53;100311.31;5039164;28;20035;-33
2023/12/28 06:18:23;;;;;;;;;;;12.60;53.90;;;12.79;57.02;100314.00;5046096;28;20303;-33
2023/12/28 06:20:51;;;;;;;;;;;12.60;53.90;;;12.81;57.02;100317.59;5035236;28;19979;-32
2023/12/28 06:23:19;;;;;;;;;;;12.60;53.90;;;12.80;57.27;100315.81;5050528;28;19931;-34
2023/12/28 06:25:47;;;;;;;;;;;12.60;53.90;;;12.85;57.11;100329.78;5043979;28;19987;-34
2023/12/28 06:28:16;;;;;;;;;;;12.60;53.80;;;12.87;56.54;100323.34;5041471;28;19925;-33
2023/12/28 06:30:44;;;;;;;;;;;12.60;53.80;;;12.86;56.61;100326.56;5046245;28;20300;-36
2023/12/28 06:33:12;;;;;;;;;;;12.70;53.80;;;12.87;56.26;100335.91;5046149;28;20047;-35
2023/12/28 06:35:40;;;;;;;;;;;12.70;53.70;;;12.87;56.23;100338.44;5044132;28;20446;-35
2023/12/28 06:38:08;;;;;;;;;;;12.70;53.70;;;12.87;56.51;100338.44;5047771;28;20027;-38
2023/12/28 06:40:36;;;;;;;;;;;12.70;53.60;;;12.87;57.08;100337.53;5045120;28;20211;-34
2023/12/28 06:43:04;;;;;;;;;;;12.70;53.60;;;12.86;56.85;100341.66;5043148;28;19967;-32
2023/12/28 06:45:33;;;;;;;;;;;12.70;53.60;;;12.85;57.09;100332.31;5042956;28;20396;-33
2023/12/28 06:48:01;;;;;;;;;;;12.70;53.60;;;12.83;56.80;100336.28;5046450;28;19924;-33
2023/12/28 06:50:29;;;;;;;;;;;12.70;53.60;;;12.82;56.46;100338.63;5047823;28;19974;-34
2023/12/28 06:52:58;;;;;;;;;;;12.70;53.60;;;12.79;57.07;100344.19;5044155;28;19931;-35
2023/12/28 06:55:26;;;;;;;;;;;12.70;53.60;;;12.79;56.61;100344.19;5041840;28;19925;-33
2023/12/28 06:57:53;;;;;;;;;;;12.70;53.70;;;12.77;56.29;100344.75;5033365;28;19929;-33
2023/12/28 07:00:22;;;;;;;;;;;12.60;53.60;;;12.71;56.96;100339.00;5042575;28;19972;-34
2023/12/28 07:02:51;;;;;;;;;;;12.60;53.70;;;12.73;57.11;100343.47;5045270;28;20016;-33
2023/12/28 07:05:19;;;;;;;;;;;12.60;53.70;;;12.70;56.81;100338.09;5045896;28;19925;-34
2023/12/28 07:07:47;;;;;;;;;;;12.60;53.80;;;12.69;56.44;100341.31;5042190;28;19925;-34
2023/12/28 07:10:16;;;;;;;;;;;12.60;53.90;;;12.66;56.88;100340.94;5042626;28;19925;-34
2023/12/28 07:12:44;;;;;;;;;;;12.50;53.90;;;12.65;57.44;100346.69;5044055;28;19979;-32
2023/12/28 07:15:14;;;;;;;;;;;12.50;53.90;;;12.64;57.50;100347.44;5045431;28;19970;-36
2023/12/28 07:17:42;;;;;;;;;;;12.50;54.00;;;12.62;57.58;100343.84;5043009;28;19924;-33
2023/12/28 07:20:12;;;;;;;;;;;12.50;54.00;;;12.61;57.39;100347.06;5041974;28;20277;-34
2023/12/28 07:22:40;;;;;;;;;;;12.40;54.00;;;12.58;57.68;100340.81;5043576;28;19925;-33
2023/12/28 07:25:08;;;;;;;;;;;12.40;54.10;;;12.57;57.70;100344.94;5045199;28;20357;-33
2023/12/28 07:27:36;;;;;;;;;;;12.40;54.10;;;12.56;57.21;100352.28;5036547;28;19925;-34
2023/12/28 07:30:07;;;;;;;;;;;12.40;54.10;;;12.55;57.23;100341.31;5045332;28;20530;-33
2023/12/28 07:32:35;;;;;;;;;;;12.40;54.10;;;12.56;57.87;100355.69;5045335;28;19935;-33
2023/12/28 07:35:03;;;;;;;;;;;12.40;54.10;;;12.57;57.63;100354.06;5049407;28;19987;-31
2023/12/28 07:37:32;;;;;;;;;;;12.40;54.10;;;12.56;57.19;100358.19;5041850;28;19925;-36
2023/12/28 07:40:00;;;;;;;;;;;12.40;54.10;;;12.57;57.22;100360.00;5046175;28;20383;-32
2023/12/28 07:42:28;;;;;;;;;;;12.40;54.10;;;12.57;57.22;100365.03;5046064;28;20308;-34
2023/12/28 07:44:56;;;;;;;;;;;12.40;54.10;;;12.58;57.06;100366.84;5034255;28;19928;-34
2023/12/28 07:47:23;;;;;;;;;;;12.40;54.00;;;12.61;57.62;100376.31;5049179;28;20020;-35
2023/12/28 07:49:51;;;;;;;;;;;12.40;54.00;;;12.62;56.95;100379.03;5043818;28;19932;-36
2023/12/28 07:52:19;;;;;;;;;;;12.40;54.00;;;12.64;56.92;100376.69;5041708;28;19944;-36
2023/12/28 07:54:48;;;;;;;;;;;12.50;54.00;;;12.67;57.28;100380.47;5041543;28;19925;-33
2023/12/28 07:57:17;;;;;;;;;;;12.50;53.90;;;12.68;56.87;100384.78;5041112;28;19932;-33
2023/12/28 07:59:45;;;;;;;;;;;12.50;53.90;;;12.70;57.16;100388.38;5042920;28;19929;-33
2023/12/28 08:02:12;;;;;;;;;;;12.50;53.80;;;12.73;56.49;100387.81;5044773;28;19964;-33
2023/12/28 08:04:40;;;;;;;;;;;12.50;53.80;;;12.73;56.70;100391.22;5043246;28;19925;-34
2023/12/28 08:07:08;;;;;;;;;;;12.50;53.70;;;12.75;57.44;100387.28;5039766;28;19925;-33
2023/12/28 08:09:36;;;;;;;;;;;12.50;53.70;;;12.75;56.55;100382.25;5041907;28;19926;-35
2023/12/28 08:12:06;;;;;;;;;;;12.50;53.70;;;12.77;57.23;100395.88;5045341;28;19978;-36
2023/12/28 08:14:34;;;;;;;;;;;12.60;53.70;;;12.80;56.95;100390.34;5045422;28;20384;-36
2023/12/28 08:17:02;;;;;;;;;;;12.60;53.70;;;12.80;56.66;100405.41;5045277;28;20015;-34
2023/12/28 08:19:29;;;;;;;;;;;12.60;53.70;;;12.81;56.43;100405.59;5046049;28;19992;-33
2023/12/28 08:21:57;;;;;;;;;;;12.60;53.60;;;12.84;56.47;100410.06;5034050;28;19925;-33
2023/12/28 08:24:25;;;;;;;;;;;12.60;53.60;;;12.85;56.80;100409.34;5043460;28;19938;-32
2023/12/28 08:26:53;;;;;;;;;;;12.60;53.60;;;12.85;56.39;100425.34;5050199;28;19933;-35
2023/12/28 08:29:22;;;;;;;;;;;12.60;53.50;;;12.89;56.21;100422.50;5043198;28;19925;-33
2023/12/28 08:31:51;;;;;;;;;;;12.70;53.50;;;12.88;55.93;100420.69;5045523;28;20380;-34
2023/12/28 08:34:19;;;;;;;;;;;12.70;53.50;;;12.88;56.49;100423.22;5044973;28;19924;-33
2023/12/28 08:36:47;;;;;;;;;;;12.70;53.50;;;12.87;56.65;100418.88;5045051;28;19979;-36
2023/12/28 08:39:15;;;;;;;;;;;12.70;53.40;;;12.87;56.43;100428.94;5048448;28;19932;-34
2023/12/28 08:41:43;;;;;;;;;;;12.70;53.40;;;12.87;57.00;100421.41;5044006;28;19931;-34
2023/12/28 08:44:10;;;;;;;;;;;12.70;53.40;;;12.82;55.76;100414.94;5045691;28;19956;-36
2023/12/28 08:46:40;;;;;;;;;;;12.70;53.40;;;12.83;56.41;100409.22;5044720;28;19925;-35
2023/12/28 08:49:08;;;;;;;;;;;12.70;53.40;;;12.84;56.63;100418.50;5052284;28;20020;-33
2023/12/28 08:51:36;;;;;;;;;;;12.70;53.50;;;12.82;55.97;100419.97;5043945;28;20403;-34
2023/12/28 08:54:04;;;;;;;;;;;12.70;53.50;;;12.80;56.54;100416.38;5041288;28;19948;-34
2023/12/28 08:56:32;;;;;;;;;;;12.70;53.50;;;12.78;55.95;100417.78;5040839;28;19947;-31
2023/12/28 08:58:59;;;;;;;;;;;12.60;53.50;;;12.75;57.45;100427.50;5031746;28;19931;-35
2023/12/28 09:01:29;;;;;;;;;;;12.60;53.50;;;12.75;56.66;100436.66;5048139;28;19931;-35
2023/12/28 09:03:59;;;;;;;;;;;12.60;53.60;;;12.71;57.48;100426.97;5043632;28;19931;-33
2023/12/28 09:06:27;;;;;;;;;;;12.60;53.60;;;12.70;57.06;100428.59;5043394;28;19928;-36
2023/12/28 09:08:55;;;;;;;;;;;12.60;53.70;;;12.69;56.82;100438.47;5040322;28;20377;-36
2023/12/28 09:11:23;;;;;;;;;;;12.50;53.70;;;12.67;57.30;100443.31;5039026;28;19925;-32
2023/12/28 09:13:51;;;;;;;;;;;12.50;53.70;;;12.65;57.30;100439.69;5042127;28;19963;-33
2023/12/28 09:16:19;;;;;;;;;;;12.50;53.80;;;12.66;56.85;100446.53;5043851;28;19987;-35
2023/12/28 09:18:47;;;;;;;;;;;12.50;53.90;;;12.66;56.86;100450.66;5041853;28;19929;-36
2023/12/28 09:21:17;;;;;;;;;;;12.50;54.00;;;12.64;57.08;100447.97;5044773;28;19925;-34
2023/12/28 09:23:45;;;;;;;;;;;12.50;54.00;;;12.65;57.37;100454.78;5054999;28;20352;-32
2023/12/28 09:26:13;;;;;;;;;;;12.50;54.10;;;12.65;57.22;100444.72;5048476;28;20403;-34
2023/12/28 09:28:41;;;;;;;;;;;12.50;54.10;;;12.66;57.19;100456.56;5045746;28;20395;-33
2023/12/28 09:31:09;;;;;;;;;;;12.50;54.10;;;12.67;57.45;100455.88;5045855;28;19925;-33
2023/12/28 09:33:37;;;;;;;;;;;12.50;54.20;;;12.68;57.46;100450.13;5044868;28;20410;-34
2023/12/28 09:36:06;;;;;;;;;;;12.50;54.20;;;12.70;57.13;100452.84;5047117;28;19925;-33
2023/12/28 09:38:35;;;;;;;;;;;12.50;54.10;;;12.67;56.56;100450.84;5046936;28;20391;-33
2023/12/28 09:41:07;;;;;;;;;;;12.50;54.10;;;12.72;56.89;100452.28;5047724;28;19948;-36
2023/12/28 09:43:36;;;;;;;;;;;12.50;54.00;;;12.75;56.84;100462.72;5047683;28;20372;-33
2023/12/28 09:46:07;;;;;;;;;;;12.60;54.10;;;12.74;57.37;100465.94;5036246;28;19928;-33
2023/12/28 09:48:35;;;;;;;;;;;12.60;54.10;;;12.77;56.99;100468.78;5043428;28;19925;-33
2023/12/28 09:51:04;;;;;;;;;;;12.60;54.00;;;12.78;57.52;100460.53;5043759;28;20424;-36
2023/12/28 09:53:32;;;;;;;;;;;12.60;53.90;;;12.80;57.32;100461.63;5044637;28;19947;-35
2023/12/28 09:56:02;;;;;;;;;;;12.60;53.90;;;12.81;56.69;100460.91;5046831;28;20023;-34
2023/12/28 09:58:32;;;;;;;;;;;12.60;53.90;;;12.72;57.43;100447.25;5047576;28;20303;-33
2023/12/28 10:01:00;;;;;;;;;;;12.60;53.90;;;12.80;57.00;100451.56;5039006;28;19925;-35
2023/12/28 10:03:28;;;;;;;;;;;12.60;53.80;;;12.84;56.83;100458.75;5046834;28;19941;-36
2023/12/28 10:05:56;;;;;;;;;;;12.60;53.70;;;12.85;56.21;100450.50;5044372;28;19928;-35
2023/12/28 10:08:24;;;;;;;;;;;12.70;53.80;;;12.87;56.83;100433.06;5043335;28;19990;-34
2023/12/28 10:10:54;;;;;;;;;;;12.70;53.70;;;12.88;56.83;100435.78;5045609;28;20463;-35
2023/12/28 10:13:23;;;;;;;;;;;12.70;53.70;;;12.89;57.40;100427.53;5055653;28;20408;-34
2023/12/28 10:15:51;;;;;;;;;;;12.70;53.70;;;12.92;55.93;100441.16;5048090;28;19925;-34
2023/12/28 10:18:20;;;;;;;;;;;12.70;53.70;;;12.92;56.68;100428.56;5050966;28;20400;-33
2023/12/28 10:20:51;;;;;;;;;;;12.70;53.60;;;12.93;57.05;100432.88;5047047;28;20012;-32
2023/12/28 10:23:19;;;;;;;;;;;12.70;53.60;;;12.93;55.87;100438.81;5048556;28;20293;-34
2023/12/28 10:25:47;;;;;;;;;;;12.70;53.60;;;12.94;56.81;100435.59;5047231;28;20403;-35
2023/12/28 10:28:18;;;;;;;;;;;12.70;53.60;;;12.94;56.95;100439.72;5049145;28;19926;-37
2023/12/28 10:30:47;;;;;;;;;;;12.70;53.60;;;12.93;56.15;100428.75;5071056;22;19936;-36
2023/12/28 10:33:19;;;;;;;;;;;12.80;53.70;;;12.94;56.84;100429.66;5074492;28;19924;-36
2023/12/28 10:35:47;;;;;;;;;;;12.70;53.60;;;12.94;56.17;100429.66;5074145;28;20031;-36
2023/12/28 10:38:17;;;;;;;;;;;12.70;53.60;;;12.94;56.88;100429.66;5073912;28;19928;-37
2023/12/28 10:40:45;;;;;;;;;;;12.70;53.60;;;12.94;56.43;100422.13;5064852;28;19932;-36
2023/12/28 10:43:16;;;;;;;;;;;12.70;53.60;;;12.94;56.75;100432.19;5067028;28;19924;-36
2023/12/28 10:45:48;;;;;;;;;;;12.70;53.60;;;12.93;56.07;100432.88;5073812;28;20290;-36
2023/12/28 10:48:16;;;;;;;;;;;12.80;53.70;;;12.92;56.31;100416.91;5073557;28;19967;-36
2023/12/28 10:50:47;;;;;;;;;;;12.80;53.70;;;12.92;56.82;100433.59;5073941;28;20018;-36
2023/12/28 10:53:34;;;;;;;;;;;12.80;53.70;;;12.92;56.28;100428.56;5074046;28;20396;-36
2023/12/28 10:56:10;;;;;;;;;;;12.70;53.60;;;12.88;56.82;100428.22;5072411;28;19964;-36
2023/12/28 10:58:48;;;;;;;;;;;12.70;53.60;;;12.88;57.10;100430.75;5073270;28;19931;-36
2023/12/28 11:01:19;;;;;;;;;;;12.70;53.60;;;12.87;56.90;100412.97;5066788;28;20311;-36
2023/12/28 11:03:47;;;;;;;;;;;12.70;53.70;;;12.85;56.76;100420.31;5073943;28;20368;-36
2023/12/28 11:06:15;;;;;;;;;;;12.70;53.70;;;12.83;56.56;100426.81;5073595;28;19931;-36
2023/12/28 11:08:46;;;;;;;;;;;12.70;53.80;;;12.82;56.73;100419.97;5081112;28;20422;-36
2023/12/28 11:11:14;;;;;;;;;;;12.70;53.80;;;12.79;56.60;100419.59;5073849;28;20012;-35
2023/12/28 11:13:42;;;;;;;;;;;12.60;53.80;;;12.78;57.14;100421.94;5074511;28;19952;-36